QFA1 WSSS-EGLL
Flight info
| Callsign | QFA1 |
|---|---|
| Flight time | N/A |
| Altitude | 32000 |
| Route | AROSO3A AROSO Y513 KALIL Y501 RINBA Y503 VPL P628 AKRAB/N0508F340 P628 ASOPO/N0507F360 P628 RK G202 ZB L750 RANAH B449 MARAD/N0493F380 B449 ETRAP B447 KRS B143 TUNEK A909 RODAR M11 REBLO UM11 CRM UL746 ODERO DCT OPT/N0493F400 DCT SOKRU DCT BEGLA DCT DEXIT DCT INBED DCT BOMBI DCT ADKUV DCT SOGRI DCT DENUT L608 LOGAN |
| Aircraft | A388/J-SADE2E3FGHIJ3J4J5M1RWXY/LB1D1 |
Departure
| Time | N/A |
|---|---|
| Airport | Singapore Changi Airport (WSSS) |
Arrival
| Time | 2026-05-03 22:09 |
|---|---|
| Airport | London Heathrow Airport (EGLL) |
| Time | Latitude | Longitude | Altitude | Speed | Heading |
|---|---|---|---|---|---|
| 2026-05-03 21:57 | 51.66186 | 0.36277 | 10718 ft | 285 kts | 261° |
| 2026-05-03 21:57 | 51.65952 | 0.33123 | 10331 ft | 283 kts | 261° |
| 2026-05-03 21:57 | 51.65718 | 0.29973 | 10026 ft | 279 kts | 262° |
| 2026-05-03 21:58 | 51.65567 | 0.27951 | 9973 ft | 271 kts | 261° |
| 2026-05-03 21:58 | 51.65334 | 0.25010 | 9875 ft | 259 kts | 257° |
| 2026-05-03 21:58 | 51.64606 | 0.22465 | 9757 ft | 248 kts | 228° |
| 2026-05-03 21:58 | 51.63235 | 0.20864 | 9541 ft | 244 kts | 202° |
| 2026-05-03 21:59 | 51.61640 | 0.19888 | 9211 ft | 243 kts | 201° |
| 2026-05-03 21:59 | 51.60057 | 0.18933 | 8909 ft | 242 kts | 201° |
| 2026-05-03 21:59 | 51.58491 | 0.17987 | 8609 ft | 242 kts | 201° |
| 2026-05-03 21:59 | 51.56915 | 0.17033 | 8307 ft | 241 kts | 201° |
| 2026-05-03 22:00 | 51.55345 | 0.16089 | 8004 ft | 240 kts | 201° |
| 2026-05-03 22:00 | 51.53788 | 0.15155 | 7726 ft | 239 kts | 201° |
| 2026-05-03 22:00 | 51.52239 | 0.14225 | 7391 ft | 237 kts | 201° |
| 2026-05-03 22:00 | 51.50693 | 0.13298 | 7019 ft | 237 kts | 201° |
| 2026-05-03 22:01 | 51.49157 | 0.12375 | 6615 ft | 235 kts | 201° |
| 2026-05-03 22:01 | 51.47718 | 0.11176 | 6176 ft | 233 kts | 224° |
| 2026-05-03 22:01 | 51.46911 | 0.09044 | 6018 ft | 220 kts | 254° |
| 2026-05-03 22:01 | 51.46680 | 0.06657 | 5820 ft | 215 kts | 265° |
| 2026-05-03 22:02 | 51.46638 | 0.04267 | 5637 ft | 212 kts | 269° |
| 2026-05-03 22:02 | 51.46636 | 0.01973 | 5570 ft | 201 kts | 268° |
| 2026-05-03 22:02 | 51.46628 | -0.00223 | 5364 ft | 191 kts | 268° |
| 2026-05-03 22:02 | 51.46620 | -0.02341 | 5097 ft | 193 kts | 268° |
| 2026-05-03 22:03 | 51.46616 | -0.03787 | 4929 ft | 193 kts | 269° |
| 2026-05-03 22:03 | 51.46600 | -0.09033 | 4292 ft | 192 kts | 269° |
| 2026-05-03 22:03 | 51.46593 | -0.11171 | 4030 ft | 191 kts | 269° |
| 2026-05-03 22:04 | 51.46589 | -0.12578 | 3859 ft | 191 kts | 269° |
| 2026-05-03 22:04 | 51.46580 | -0.15422 | 3517 ft | 190 kts | 269° |
| 2026-05-03 22:04 | 51.46578 | -0.16134 | 3433 ft | 190 kts | 269° |
| 2026-05-03 22:04 | 51.46566 | -0.20022 | 2984 ft | 189 kts | 270° |
| 2026-05-03 22:05 | 51.46563 | -0.22119 | 2734 ft | 188 kts | 270° |
| 2026-05-03 22:05 | 51.46558 | -0.23492 | 2559 ft | 187 kts | 270° |
| 2026-05-03 22:05 | 51.46548 | -0.25555 | 2325 ft | 173 kts | 270° |
| 2026-05-03 22:05 | 51.46543 | -0.27407 | 2101 ft | 162 kts | 270° |
| 2026-05-03 22:06 | 51.46538 | -0.29207 | 1879 ft | 161 kts | 270° |
| 2026-05-03 22:06 | 51.46532 | -0.30975 | 1660 ft | 153 kts | 269° |
| 2026-05-03 22:06 | 51.46521 | -0.32599 | 1436 ft | 140 kts | 268° |
| 2026-05-03 22:06 | 51.46512 | -0.34146 | 1248 ft | 138 kts | 269° |
| 2026-05-03 22:07 | 51.46504 | -0.35681 | 1069 ft | 137 kts | 269° |
| 2026-05-03 22:07 | 51.46510 | -0.37199 | 870 ft | 137 kts | 270° |
| 2026-05-03 22:07 | 51.46522 | -0.38716 | 701 ft | 136 kts | 269° |
| 2026-05-03 22:07 | 51.46517 | -0.40231 | 548 ft | 135 kts | 267° |
| 2026-05-03 22:08 | 51.46501 | -0.41740 | 359 ft | 134 kts | 268° |
| 2026-05-03 22:08 | 51.46493 | -0.43216 | 158 ft | 132 kts | 268° |
| 2026-05-03 22:08 | 51.46489 | -0.44600 | 93 ft | 106 kts | 269° |
| 2026-05-03 22:08 | 51.46485 | -0.45562 | 94 ft | 66 kts | 271° |
| 2026-05-03 22:09 | 51.46487 | -0.46108 | 95 ft | 36 kts | 270° |
| 2026-05-03 22:09 | 51.46494 | -0.46465 | 94 ft | 29 kts | 275° |
| 2026-05-03 22:09 | 51.46547 | -0.46755 | 96 ft | 25 kts | 296° |
| 2026-05-03 22:10 | 51.46614 | -0.46851 | 94 ft | 0 kts | 351° |
| 2026-05-03 22:10 | 51.46630 | -0.46854 | 95 ft | 4 kts | 7° |
| 2026-05-03 22:10 | 51.46647 | -0.46832 | 96 ft | 4 kts | 66° |
| 2026-05-03 22:10 | 51.46655 | -0.46750 | 94 ft | 11 kts | 86° |
| 2026-05-03 22:11 | 51.46658 | -0.46600 | 95 ft | 16 kts | 90° |
| 2026-05-03 22:11 | 51.46658 | -0.46393 | 95 ft | 21 kts | 91° |
| 2026-05-03 22:11 | 51.46657 | -0.46159 | 94 ft | 13 kts | 89° |
| 2026-05-03 22:11 | 51.46658 | -0.46072 | 94 ft | 2 kts | 89° |
| 2026-05-03 22:12 | 51.46659 | -0.46011 | 94 ft | 9 kts | 89° |
| 2026-05-03 22:12 | 51.46661 | -0.45878 | 91 ft | 12 kts | 89° |
| 2026-05-03 22:12 | 51.46663 | -0.45741 | 91 ft | 11 kts | 89° |
| 2026-05-03 22:12 | 51.46664 | -0.45673 | 91 ft | 7 kts | 88° |
| 2026-05-03 22:13 | 51.46665 | -0.45598 | 91 ft | 1 kts | 90° |
| 2026-05-03 22:13 | 51.46665 | -0.45593 | 91 ft | 2 kts | 90° |
| 2026-05-03 22:13 | 51.46665 | -0.45529 | 91 ft | 9 kts | 91° |
| 2026-05-03 22:13 | 51.46674 | -0.45406 | 93 ft | 10 kts | 51° |
| 2026-05-03 22:14 | 51.46728 | -0.45379 | 94 ft | 6 kts | 339° |
| 2026-05-03 22:14 | 51.46755 | -0.45410 | 96 ft | 7 kts | 313° |
| 2026-05-03 22:14 | 51.46778 | -0.45435 | 95 ft | 2 kts | 348° |
| 2026-05-03 22:14 | 51.46801 | -0.45442 | 95 ft | 4 kts | 352° |
| 2026-05-03 22:15 | 51.46817 | -0.45444 | 93 ft | 1 kts | 359° |
| 2026-05-03 22:15 | 51.46831 | -0.45445 | 92 ft | 1 kts | 359° |
| 2026-05-03 22:15 | 51.46835 | -0.45445 | 91 ft | 0 kts | 359° |
| 2026-05-03 22:15 | 51.46834 | -0.45445 | 91 ft | 0 kts | 359° |